Time;durP1;ratioP1;P1;durP2;ratioP2;P2;SDS_P1;SDS_P2;PMS_P1;PMS_P2;Temp;Humidity;BMP_temperature;BMP_pressure;BME280_temperature;BME280_humidity;BME280_pressure;Samples;Min_cycle;Max_cycle;Signal;HPM_P1;HPM_P2
2023/01/11 00:00:56;;;;;;;6.53;3.70;;;;;;;4.87;80.50;101004.56;5020504;28;20281;-76
2023/01/11 00:03:26;;;;;;;3.28;1.90;;;;;;;4.90;80.66;100998.03;5021093;28;20232;-79
2023/01/11 00:06:06;;;;;;;8.13;3.55;;;;;;;4.99;80.38;101002.41;5017035;28;20193;-79
2023/01/11 00:08:37;;;;;;;8.02;2.90;;;;;;;5.03;80.34;101001.94;5021476;28;20225;-78
2023/01/11 00:11:13;;;;;;;11.25;4.63;;;;;;;5.06;79.95;101001.59;5018363;28;20186;-78
2023/01/11 00:13:44;;;;;;;8.00;3.17;;;;;;;5.04;79.99;100994.72;5022758;28;20213;-79
2023/01/11 00:16:14;;;;;;;7.40;3.65;;;;;;;5.03;80.18;100985.84;5028138;28;20186;-79
2023/01/11 00:18:43;;;;;;;6.35;3.63;;;;;;;5.08;79.26;101004.13;5043452;28;20305;-78
2023/01/11 00:21:14;;;;;;;5.97;2.95;;;;;;;5.02;79.81;101002.09;5029540;28;20207;-78
2023/01/11 00:23:44;;;;;;;5.25;3.15;;;;;;;4.92;80.00;100990.66;5025389;28;20218;-78
2023/01/11 00:26:14;;;;;;;7.60;2.97;;;;;;;5.02;79.83;100989.53;5019637;28;20197;-80
2023/01/11 00:29:09;;;;;;;5.10;2.40;;;;;;;4.96;80.22;100975.91;5018198;28;20198;-77
2023/01/11 00:31:38;;;;;;;7.38;3.00;;;;;;;4.96;80.06;100975.91;4995097;28;20207;-79
2023/01/11 00:34:08;;;;;;;13.13;3.17;;;;;;;4.93;80.24;100970.91;5018735;28;20249;-78
2023/01/11 00:36:40;;;;;;;7.80;5.00;;;;;;;4.88;80.05;100967.88;5002131;28;20257;-78
2023/01/11 00:39:10;;;;;;;5.82;2.47;;;;;;;4.79;80.42;100962.47;5015749;28;20212;-77
2023/01/11 00:50:12;;;;;;;5.97;3.05;;;;;;;4.99;81.08;100954.13;5016329;28;20298;-76
2023/01/11 00:52:47;;;;;;;15.85;4.40;;;;;;;5.00;79.66;100947.78;5021693;28;20205;-78
2023/01/11 00:55:18;;;;;;;5.85;3.78;;;;;;;4.92;80.12;100958.50;5045261;28;20213;-78
2023/01/11 00:57:47;;;;;;;9.40;2.25;;;;;;;4.85;80.24;100946.72;5035930;28;20182;-78
2023/01/11 01:00:18;;;;;;;14.13;3.53;;;;;;;4.96;79.56;100943.75;5036752;28;20183;-77
2023/01/11 01:02:50;;;;;;;9.23;3.17;;;;;;;4.85;79.94;100941.34;5027780;28;20214;-78
2023/01/11 01:05:21;;;;;;;4.15;2.53;;;;;;;4.88;80.36;100933.00;5047457;28;20177;-77
2023/01/11 01:07:52;;;;;;;5.13;2.58;;;;;;;4.97;79.71;100923.97;5020956;28;20175;-80
2023/01/11 01:10:21;;;;;;;6.20;2.50;;;;;;;4.95;79.76;100917.91;5019812;28;20221;-78
2023/01/11 01:15:39;;;;;;;4.50;2.65;;;;;;;5.09;79.23;100914.59;5014350;28;20259;-78
2023/01/11 01:18:08;;;;;;;7.72;3.47;;;;;;;5.09;78.83;100902.00;5007098;28;20203;-78
2023/01/11 01:20:38;;;;;;;8.32;3.35;;;;;;;5.15;78.82;100916.59;5021731;28;20633;-78
2023/01/11 01:23:11;;;;;;;7.78;3.38;;;;;;;5.22;77.97;100907.75;5021635;28;20210;-79
2023/01/11 01:25:41;;;;;;;7.80;2.42;;;;;;;5.08;78.79;100919.09;5022101;28;20201;-79
2023/01/11 01:28:11;;;;;;;4.35;2.35;;;;;;;5.18;78.36;100913.63;5018989;28;20289;-77
2023/01/11 01:30:40;;;;;;;8.52;2.58;;;;;;;5.09;78.38;100912.75;5020445;28;20643;-76
2023/01/11 01:33:10;;;;;;;8.55;2.80;;;;;;;5.00;79.15;100912.91;5020264;28;20213;-77
2023/01/11 01:35:39;;;;;;;9.60;3.55;;;;;;;4.99;79.48;100905.84;5052703;28;20216;-77
2023/01/11 01:38:11;;;;;;;7.28;2.95;;;;;;;4.95;79.60;100900.00;5054176;28;20197;-77
2023/01/11 01:41:14;;;;;;;3.70;2.38;;;;;;;4.89;79.87;100899.84;5033571;28;20186;-77
2023/01/11 01:48:27;;;;;;;8.35;2.88;;;;;;;5.01;79.98;100893.13;5002669;28;20189;-78
2023/01/11 01:51:42;;;;;;;10.63;2.55;;;;;;;5.02;79.35;100890.28;5014713;28;20189;-76
2023/01/11 01:54:15;;;;;;;8.80;2.50;;;;;;;5.16;78.96;100880.75;5015735;28;20237;-74
2023/01/11 01:56:49;;;;;;;7.97;2.63;;;;;;;5.16;78.82;100880.75;5016707;28;20273;-75
2023/01/11 01:59:20;;;;;;;5.78;2.05;;;;;;;5.09;78.75;100874.34;5005726;28;20174;-77
2023/01/11 02:01:51;;;;;;;8.05;2.58;;;;;;;5.16;78.71;100872.69;5020179;28;20198;-77
2023/01/11 02:04:24;;;;;;;5.10;2.20;;;;;;;5.25;78.16;100864.47;5019201;28;20276;-79
2023/01/11 02:06:58;;;;;;;5.93;2.40;;;;;;;5.30;77.86;100861.28;5017554;28;20210;-76
2023/01/11 02:09:33;;;;;;;6.32;2.85;;;;;;;5.29;77.30;100851.53;5017791;28;20194;-78
2023/01/11 02:12:06;;;;;;;4.45;1.77;;;;;;;5.32;77.37;100839.66;5017922;28;20213;-76
2023/01/11 02:14:38;;;;;;;6.90;3.05;;;;;;;5.30;77.36;100845.19;5016988;28;20206;-75
2023/01/11 02:17:07;;;;;;;7.00;2.25;;;;;;;5.38;77.11;100836.28;5035327;28;20178;-77
2023/01/11 02:19:51;;;;;;;2.47;1.80;;;;;;;5.25;77.83;100839.47;5031469;28;20198;-77
2023/01/11 02:22:55;;;;;;;5.72;2.28;;;;;;;5.39;76.60;100827.22;5017281;28;20689;-77
2023/01/11 02:25:59;;;;;;;5.90;2.40;;;;;;;5.39;76.34;100822.69;5014851;28;20250;-78
2023/01/11 02:28:41;;;;;;;4.43;2.72;;;;;;;5.35;76.60;100818.69;5030877;28;20190;-79
2023/01/11 02:31:24;;;;;;;9.38;2.60;;;;;;;5.40;76.52;100818.16;5016900;28;20190;-78
2023/01/11 02:34:05;;;;;;;8.73;2.05;;;;;;;5.49;75.69;100801.88;5016531;28;20240;-77
2023/01/11 02:36:47;;;;;;;5.05;2.30;;;;;;;5.57;74.96;100801.84;4998709;28;20221;-77
2023/01/11 02:39:21;;;;;;;9.00;2.05;;;;;;;5.55;75.31;100786.94;5016044;28;20214;-76
2023/01/11 02:45:02;;;;;;;7.20;2.60;;;;;;;5.58;74.67;100784.72;5016378;28;20520;-76
2023/01/11 02:47:39;;;;;;;6.30;1.95;;;;;;;5.59;74.67;100770.31;5015635;28;20174;-78
2023/01/11 02:50:19;;;;;;;3.00;1.60;;;;;;;5.62;74.18;100780.69;5031393;28;20202;-76
2023/01/11 02:52:55;;;;;;;5.43;2.53;;;;;;;5.55;74.60;100777.03;5016174;28;20635;-78
2023/01/11 02:55:30;;;;;;;2.97;1.63;;;;;;;5.76;73.69;100775.63;5015163;28;20208;-78
2023/01/11 02:58:03;;;;;;;6.05;2.05;;;;;;;5.66;73.69;100773.97;5015604;28;20267;-77
2023/01/11 03:00:34;;;;;;;5.43;1.85;;;;;;;5.76;73.55;100765.69;5014697;28;20174;-77
2023/01/11 03:03:09;;;;;;;5.45;1.40;;;;;;;5.71;73.72;100772.63;4994093;28;20233;-77
2023/01/11 03:05:46;;;;;;;4.63;1.70;;;;;;;5.72;73.64;100766.22;5006236;28;20693;-76
2023/01/11 03:08:44;;;;;;;3.92;2.10;;;;;;;5.85;73.22;100758.47;4997225;28;20201;-76
2023/01/11 03:12:50;;;;;;;3.35;2.53;;;;;;;5.81;73.19;100755.28;5007487;28;20230;-75
2023/01/11 03:14:19;;;;;;;4.55;1.50;;;;;;;5.89;72.70;100755.28;5014633;28;20222;-76
2023/01/11 03:16:58;;;;;;;3.17;1.65;;;;;;;5.96;72.27;100742.81;5015425;28;20257;-77
2023/01/11 03:19:35;;;;;;;3.40;1.25;;;;;;;6.00;72.31;100746.00;5014855;28;20725;-76
2023/01/11 03:22:12;;;;;;;6.50;2.83;;;;;;;5.85;72.72;100747.72;5016860;28;20949;-75
2023/01/11 03:24:48;;;;;;;3.10;1.55;;;;;;;5.90;72.79;100738.16;5019110;28;20539;-75
2023/01/11 03:27:23;;;;;;;5.72;2.78;;;;;;;5.89;72.47;100732.97;5019415;28;20196;-77
2023/01/11 03:30:00;;;;;;;6.72;1.63;;;;;;;5.83;72.74;100737.16;5019558;28;20193;-77
2023/01/11 03:32:42;;;;;;;3.92;2.28;;;;;;;5.87;72.74;100726.91;5015471;28;20315;-77
2023/01/11 03:35:21;;;;;;;9.07;1.73;;;;;;;5.99;72.11;100729.06;5016019;28;20209;-76
2023/01/11 03:37:57;;;;;;;8.45;2.10;;;;;;;5.92;72.24;100727.22;5015828;28;20174;-77
2023/01/11 03:40:32;;;;;;;3.47;1.48;;;;;;;5.92;72.18;100711.94;5030653;28;20198;-76
2023/01/11 03:43:11;;;;;;;4.10;1.50;;;;;;;5.89;72.49;100714.16;5018553;28;20229;-75
2023/01/11 03:45:46;;;;;;;2.55;1.42;;;;;;;5.86;72.34;100717.16;5025245;28;20638;-76
2023/01/11 03:48:21;;;;;;;10.65;2.72;;;;;;;5.98;72.04;100713.09;5016578;28;20238;-77
2023/01/11 03:50:53;;;;;;;3.72;1.40;;;;;;;5.92;72.14;100711.94;5014019;28;20545;-77
2023/01/11 03:53:25;;;;;;;5.03;1.75;;;;;;;5.98;72.19;100721.16;5014217;28;20248;-77
2023/01/11 03:55:57;;;;;;;4.82;1.45;;;;;;;5.98;71.95;100707.72;5014090;28;20204;-78
2023/01/11 03:58:28;;;;;;;5.25;2.42;;;;;;;5.94;72.15;100704.56;5013217;28;20194;-77
2023/01/11 04:00:58;;;;;;;5.60;1.60;;;;;;;6.06;72.12;100702.28;5014714;28;20182;-77
2023/01/11 04:03:29;;;;;;;4.03;1.00;;;;;;;6.04;72.14;100709.72;5017956;28;20206;-75
2023/01/11 04:06:01;;;;;;;3.63;1.33;;;;;;;6.02;72.16;100703.66;5002489;28;20209;-75
2023/01/11 04:08:31;;;;;;;4.82;1.70;;;;;;;6.05;71.73;100692.59;5018303;28;20178;-74
2023/01/11 04:11:03;;;;;;;5.90;1.75;;;;;;;6.08;72.05;100702.97;5015182;28;20237;-77
2023/01/11 04:13:32;;;;;;;6.07;1.67;;;;;;;5.98;72.14;100694.31;5013983;28;20238;-76
2023/01/11 04:16:02;;;;;;;4.53;2.13;;;;;;;6.06;72.38;100695.06;5013967;28;20192;-77
2023/01/11 04:18:33;;;;;;;3.35;1.63;;;;;;;6.17;72.08;100691.16;5032776;28;20194;-75
2023/01/11 04:21:02;;;;;;;6.90;1.60;;;;;;;6.01;72.68;100688.56;5028975;28;20209;-77
2023/01/11 04:23:31;;;;;;;9.45;2.10;;;;;;;6.10;72.39;100688.31;5027641;28;20217;-76
2023/01/11 04:26:01;;;;;;;2.60;1.67;;;;;;;6.06;73.25;100689.72;5026611;28;20182;-77
2023/01/11 04:28:30;;;;;;;2.70;1.70;;;;;;;6.06;73.05;100683.50;5027244;28;20693;-76
2023/01/11 04:30:59;;;;;;;6.18;1.80;;;;;;;6.12;73.09;100680.09;5028160;28;20240;-76
2023/01/11 04:33:28;;;;;;;5.57;1.60;;;;;;;6.15;72.51;100676.25;5039141;28;20229;-77
2023/01/11 04:35:59;;;;;;;3.45;1.40;;;;;;;6.23;72.90;100660.06;5026582;28;20189;-76
2023/01/11 04:38:29;;;;;;;2.53;1.10;;;;;;;6.14;72.93;100656.59;5029697;28;20206;-76
2023/01/11 04:43:41;;;;;;;5.22;2.33;;;;;;;6.07;73.11;100658.31;5012960;28;20312;-77
2023/01/11 04:46:10;;;;;;;1.90;1.17;;;;;;;6.02;73.93;100649.94;5013695;28;20186;-76
2023/01/11 04:48:41;;;;;;;8.38;1.73;;;;;;;6.14;73.47;100661.13;5029628;28;20205;-75
2023/01/11 04:51:11;;;;;;;3.65;1.75;;;;;;;6.13;73.51;100657.59;5016196;28;20209;-76
2023/01/11 04:53:41;;;;;;;4.60;1.58;;;;;;;6.12;73.50;100647.88;5019660;28;20218;-76
2023/01/11 04:56:12;;;;;;;3.65;1.48;;;;;;;6.09;73.95;100645.53;5018763;28;20205;-76
2023/01/11 04:58:41;;;;;;;5.43;4.55;;;;;;;6.06;73.76;100653.94;5019705;28;20685;-77
2023/01/11 05:01:14;;;;;;;4.40;2.03;;;;;;;6.08;73.92;100649.25;5018107;28;20573;-77
2023/01/11 05:03:44;;;;;;;4.03;1.77;;;;;;;6.15;73.83;100652.88;5019115;28;20288;-77
2023/01/11 05:06:15;;;;;;;4.28;2.45;;;;;;;6.10;74.53;100644.50;5019859;28;20170;-76
2023/01/11 05:08:46;;;;;;;3.42;1.40;;;;;;;6.18;73.96;100644.47;5016216;28;20221;-76
2023/01/11 05:11:17;;;;;;;3.83;1.40;;;;;;;6.16;74.02;100635.75;5000829;28;20294;-75
2023/01/11 05:13:46;;;;;;;2.03;1.55;;;;;;;6.06;74.23;100629.78;4999261;28;20275;-75
2023/01/11 05:16:17;;;;;;;6.72;1.95;;;;;;;6.25;74.01;100637.34;4999197;28;20711;-76
2023/01/11 05:18:48;;;;;;;6.60;1.42;;;;;;;6.23;73.68;100639.38;5016009;28;20212;-77
2023/01/11 05:21:21;;;;;;;4.63;1.42;;;;;;;6.20;74.25;100628.97;5016228;28;20183;-76
2023/01/11 05:23:51;;;;;;;1.75;1.50;;;;;;;6.18;74.41;100627.50;5016251;28;20305;-77
2023/01/11 05:26:22;;;;;;;5.95;1.67;;;;;;;6.22;74.32;100613.53;5016574;28;20182;-76
2023/01/11 05:28:52;;;;;;;2.83;1.35;;;;;;;6.42;73.68;100609.31;5016412;28;20186;-77
2023/01/11 05:31:23;;;;;;;5.47;2.13;;;;;;;6.36;73.92;100611.91;5016389;28;20193;-77
2023/01/11 05:33:53;;;;;;;6.35;1.55;;;;;;;6.19;74.09;100608.53;5016676;28;20206;-76
2023/01/11 05:36:25;;;;;;;1.85;1.63;;;;;;;6.23;74.23;100609.84;5032359;28;20190;-77
2023/01/11 05:38:55;;;;;;;2.97;1.77;;;;;;;6.25;74.17;100615.84;5029243;28;20655;-76
2023/01/11 05:41:27;;;;;;;4.35;1.80;;;;;;;6.08;75.23;100604.41;4996298;28;20286;-76
2023/01/11 05:46:44;;;;;;;1.90;1.13;;;;;;;6.13;76.15;100593.13;5016087;28;20255;-76
2023/01/11 05:49:14;;;;;;;2.03;1.13;;;;;;;6.15;76.33;100585.69;5008579;28;20194;-76
2023/01/11 05:51:45;;;;;;;2.97;2.05;;;;;;;6.09;76.11;100589.97;4996410;28;20206;-77
2023/01/11 05:54:16;;;;;;;3.25;1.40;;;;;;;6.19;76.37;100584.34;5015823;28;20369;-78
2023/01/11 05:56:45;;;;;;;4.15;2.17;;;;;;;6.26;75.88;100584.44;5017810;28;20194;-78
2023/01/11 05:59:14;;;;;;;3.75;1.60;;;;;;;6.17;76.43;100585.53;5020950;28;20202;-77
2023/01/11 06:01:44;;;;;;;4.57;1.77;;;;;;;6.17;77.73;100588.22;5023758;28;20182;-76
2023/01/11 06:04:13;;;;;;;3.10;2.30;;;;;;;6.14;78.07;100597.50;5024488;28;20654;-78
2023/01/11 06:06:44;;;;;;;3.70;3.30;;;;;;;6.09;78.82;100589.97;5035201;28;20300;-79
2023/01/11 06:09:15;;;;;;;5.55;2.20;;;;;;;6.08;78.61;100592.81;5018632;28;20202;-78
2023/01/11 06:11:45;;;;;;;5.80;1.65;;;;;;;6.10;78.76;100585.41;5018693;28;20202;-77
2023/01/11 06:14:14;;;;;;;6.30;1.75;;;;;;;6.13;78.81;100579.69;5018303;28;20205;-78
2023/01/11 06:16:44;;;;;;;10.50;2.25;;;;;;;6.07;79.31;100583.94;5018504;28;20190;-77
2023/01/11 06:19:13;;;;;;;7.85;1.90;;;;;;;6.15;79.61;100577.63;5033067;28;20330;-78
2023/01/11 06:21:44;;;;;;;7.57;2.20;;;;;;;6.15;79.33;100569.56;5018114;28;20182;-77
2023/01/11 06:24:13;;;;;;;4.35;1.95;;;;;;;6.06;79.78;100562.63;5038034;28;20226;-79
2023/01/11 06:26:42;;;;;;;3.90;1.80;;;;;;;6.09;79.78;100564.97;5035107;28;20222;-76
2023/01/11 06:29:13;;;;;;;8.27;2.05;;;;;;;5.96;80.01;100560.19;5018870;28;20650;-77
2023/01/11 06:31:42;;;;;;;5.75;1.63;;;;;;;6.11;79.90;100561.06;5034406;28;20210;-78
2023/01/11 06:34:12;;;;;;;2.67;1.60;;;;;;;6.06;79.97;100562.63;5019401;28;20229;-75
2023/01/11 06:36:41;;;;;;;10.48;2.25;;;;;;;6.03;80.22;100550.41;5017917;28;20198;-77
2023/01/11 06:39:12;;;;;;;4.13;1.83;;;;;;;5.91;80.86;100559.88;5051629;28;20201;-77
2023/01/11 06:41:41;;;;;;;3.95;1.90;;;;;;;6.09;80.13;100554.22;5021247;28;20349;-77
2023/01/11 06:44:10;;;;;;;10.23;2.85;;;;;;;6.06;80.06;100557.25;5021968;28;20320;-76
2023/01/11 06:46:40;;;;;;;13.85;2.03;;;;;;;5.97;80.36;100561.00;5020939;28;20195;-76
2023/01/11 06:49:10;;;;;;;6.68;2.35;;;;;;;6.03;80.37;100562.97;5006609;28;20216;-76
2023/01/11 06:51:39;;;;;;;2.78;1.75;;;;;;;6.00;80.38;100558.78;5025226;28;20221;-76
2023/01/11 06:54:09;;;;;;;2.97;1.80;;;;;;;6.07;80.17;100558.91;5027579;28;20205;-76
2023/01/11 06:56:39;;;;;;;4.60;2.65;;;;;;;6.15;79.94;100566.09;5042389;28;20212;-76
2023/01/11 06:59:09;;;;;;;8.60;2.17;;;;;;;6.09;80.12;100568.47;5023890;28;20635;-77
2023/01/11 07:01:38;;;;;;;2.90;1.40;;;;;;;6.10;80.39;100569.28;5024813;28;20609;-76
2023/01/11 07:04:07;;;;;;;5.15;1.42;;;;;;;6.15;80.37;100572.28;5020446;28;20229;-76
2023/01/11 07:06:37;;;;;;;5.10;1.30;;;;;;;6.17;79.98;100572.94;5023815;28;20197;-75
2023/01/11 07:09:06;;;;;;;4.18;2.05;;;;;;;6.23;80.02;100584.81;4999861;28;20193;-78
2023/01/11 07:11:37;;;;;;;1.90;1.35;;;;;;;6.29;79.33;100584.94;5018958;28;20576;-77
2023/01/11 07:14:08;;;;;;;4.88;2.33;;;;;;;6.34;79.44;100582.50;5004365;28;20709;-78
2023/01/11 07:16:37;;;;;;;4.05;1.70;;;;;;;6.35;79.27;100584.19;5006880;28;20252;-76
2023/01/11 07:19:07;;;;;;;2.38;1.58;;;;;;;6.36;79.34;100582.34;5017968;28;20190;-77
2023/01/11 07:21:36;;;;;;;3.45;1.50;;;;;;;6.31;78.92;100587.41;5019208;28;20193;-78
2023/01/11 07:24:06;;;;;;;2.92;1.42;;;;;;;6.41;78.22;100582.63;5016815;28;20228;-77
2023/01/11 07:26:39;;;;;;;2.90;1.55;;;;;;;6.43;78.77;100586.81;5019357;28;20640;-77
2023/01/11 07:29:11;;;;;;;2.53;1.40;;;;;;;6.39;78.47;100590.84;5020697;28;20194;-77
2023/01/11 07:31:40;;;;;;;6.35;2.13;;;;;;;6.51;78.00;100589.41;5019963;28;20615;-75
2023/01/11 07:34:09;;;;;;;4.53;1.90;;;;;;;6.53;77.62;100584.66;5021194;28;20708;-78
2023/01/11 07:36:39;;;;;;;7.15;2.10;;;;;;;6.54;77.92;100583.66;5020911;28;20190;-77
2023/01/11 07:39:08;;;;;;;4.47;2.42;;;;;;;6.57;77.73;100584.31;5009941;28;20656;-78
2023/01/11 07:44:26;;;;;;;6.57;1.10;;;;;;;6.54;77.59;100582.81;5041168;28;20224;-79
2023/01/11 07:46:55;;;;;;;2.95;1.42;;;;;;;6.47;78.02;100577.34;5047742;28;20180;-78
2023/01/11 07:49:25;;;;;;;5.85;1.60;;;;;;;6.51;78.21;100575.13;5031589;28;20201;-77
2023/01/11 07:51:54;;;;;;;4.55;2.13;;;;;;;6.65;78.03;100574.31;5036225;28;20358;-76
2023/01/11 07:54:24;;;;;;;2.95;1.92;;;;;;;6.65;77.71;100589.59;5035665;28;20208;-78
2023/01/11 07:56:55;;;;;;;4.20;1.98;;;;;;;6.72;77.44;100582.47;5025205;28;20562;-78
2023/01/11 07:59:26;;;;;;;5.45;2.63;;;;;;;6.75;77.35;100579.41;5023148;28;20232;-76
2023/01/11 08:01:55;;;;;;;3.72;1.88;;;;;;;6.78;77.37;100576.34;5018736;28;20182;-77
2023/01/11 08:04:24;;;;;;;4.03;1.80;;;;;;;6.84;77.80;100573.75;5018574;28;20221;-77
2023/01/11 08:06:53;;;;;;;3.97;2.08;;;;;;;6.88;77.16;100564.28;5016451;28;20189;-77
2023/01/11 08:09:23;;;;;;;2.00;1.15;;;;;;;6.84;77.41;100573.75;5016012;28;20186;-78
2023/01/11 08:14:40;;;;;;;2.90;1.60;;;;;;;6.79;77.46;100565.41;5015971;28;20205;-77
2023/01/11 08:17:12;;;;;;;5.15;1.90;;;;;;;6.80;77.84;100572.47;5031946;28;20745;-76
2023/01/11 08:19:42;;;;;;;1.60;1.23;;;;;;;6.91;77.80;100573.84;5031478;28;20206;-77
2023/01/11 08:22:12;;;;;;;5.50;2.95;;;;;;;6.93;77.73;100561.88;5032092;28;20392;-78
2023/01/11 08:24:41;;;;;;;2.17;1.40;;;;;;;6.96;77.39;100566.06;5014682;28;20186;-76
2023/01/11 08:27:11;;;;;;;2.55;1.60;;;;;;;7.01;77.30;100558.28;5016739;28;20658;-78
2023/01/11 08:29:43;;;;;;;8.70;1.80;;;;;;;6.95;77.76;100559.00;5018247;28;20212;-77
2023/01/11 08:32:13;;;;;;;3.38;2.40;;;;;;;6.96;77.94;100560.69;5014721;28;20209;-78
2023/01/11 08:34:43;;;;;;;3.08;1.70;;;;;;;7.01;77.89;100566.34;5000539;28;20669;-77
2023/01/11 08:37:12;;;;;;;2.40;1.60;;;;;;;7.11;77.90;100564.19;5005518;28;20198;-77
2023/01/11 08:39:42;;;;;;;4.22;1.83;;;;;;;7.19;77.56;100566.78;5041643;28;20221;-77
2023/01/11 08:42:11;;;;;;;9.10;2.17;;;;;;;7.27;77.46;100557.75;5024694;28;20198;-78
2023/01/11 08:44:42;;;;;;;2.83;1.40;;;;;;;7.25;77.55;100552.56;5024263;28;20206;-77
2023/01/11 08:47:12;;;;;;;7.18;1.70;;;;;;;7.34;77.64;100562.19;5041422;28;20661;-77
2023/01/11 08:49:41;;;;;;;4.50;2.60;;;;;;;7.37;77.59;100551.03;5050484;28;20194;-77
2023/01/11 08:52:13;;;;;;;2.47;1.63;;;;;;;7.30;78.74;100544.75;5032774;28;20202;-77
2023/01/11 08:54:43;;;;;;;5.07;2.03;;;;;;;7.32;78.68;100555.31;5019100;28;20206;-77
2023/01/11 08:57:12;;;;;;;2.00;1.27;;;;;;;7.36;79.16;100549.38;5018421;28;20186;-77
2023/01/11 08:59:43;;;;;;;4.32;3.17;;;;;;;7.35;80.65;100555.81;5000850;28;20198;-78
2023/01/11 09:02:16;;;;;;;4.07;1.92;;;;;;;7.40;81.81;100557.94;5008588;28;20702;-76
2023/01/11 09:04:51;;;;;;;4.10;2.55;;;;;;;7.26;82.71;100554.22;5034578;28;20537;-77
2023/01/11 09:07:21;;;;;;;3.05;2.63;;;;;;;7.18;83.23;100554.34;5017806;28;20217;-79
2023/01/11 09:09:51;;;;;;;3.08;2.20;;;;;;;7.23;83.86;100561.84;5028462;28;20228;-77
2023/01/11 09:12:20;;;;;;;4.82;2.42;;;;;;;7.15;83.80;100562.81;5018177;28;20273;-78
2023/01/11 09:14:50;;;;;;;9.80;3.13;;;;;;;7.29;84.13;100555.72;5017921;28;20244;-77
2023/01/11 09:17:20;;;;;;;2.85;2.25;;;;;;;7.27;84.46;100549.66;5017895;28;20217;-77
2023/01/11 09:19:50;;;;;;;4.30;1.70;;;;;;;7.19;85.92;100547.94;5018105;28;20603;-77
2023/01/11 09:22:19;;;;;;;3.30;1.60;;;;;;;7.15;86.98;100543.97;5033875;28;20260;-76
2023/01/11 09:24:48;;;;;;;10.43;2.33;;;;;;;7.07;88.65;100541.34;5020491;28;20860;-78
2023/01/11 09:27:18;;;;;;;2.17;1.98;;;;;;;7.09;88.85;100543.88;4999680;28;20199;-77
2023/01/11 09:29:47;;;;;;;4.60;2.75;;;;;;;7.10;89.49;100540.16;5032809;28;20296;-79
2023/01/11 09:32:18;;;;;;;5.50;2.72;;;;;;;7.05;90.09;100535.34;5033498;28;20204;-77
2023/01/11 09:34:48;;;;;;;2.97;2.10;;;;;;;6.99;91.61;100538.78;5017604;28;20716;-76
2023/01/11 09:37:18;;;;;;;2.58;1.65;;;;;;;6.91;92.29;100531.66;5019162;28;20217;-78
2023/01/11 09:39:53;;;;;;;4.43;2.20;;;;;;;6.96;92.64;100547.25;5033588;28;20268;-76
2023/01/11 09:42:35;;;;;;;3.88;2.40;;;;;;;6.86;93.77;100536.75;5005024;28;20205;-76
2023/01/11 09:45:13;;;;;;;8.27;3.30;;;;;;;6.88;94.55;100534.69;5021012;28;20175;-77
2023/01/11 09:47:49;;;;;;;6.13;2.10;;;;;;;6.89;95.90;100522.94;5023401;28;20197;-78
2023/01/11 09:50:23;;;;;;;6.22;2.33;;;;;;;6.78;97.01;100519.88;5023402;28;20656;-78
2023/01/11 09:52:56;;;;;;;4.68;2.15;;;;;;;6.81;98.53;100517.66;5023483;28;20241;-77
2023/01/11 09:55:32;;;;;;;7.40;2.35;;;;;;;6.92;99.08;100529.81;5003401;28;20670;-77
2023/01/11 09:58:38;;;;;;;4.40;2.97;;;;;;;6.92;98.94;100527.13;5021010;28;20232;-78
2023/01/11 10:01:26;;;;;;;12.45;2.58;;;;;;;7.07;98.25;100525.22;5032703;28;20240;-77
2023/01/11 10:04:43;;;;;;;3.13;2.35;;;;;;;7.03;98.59;100523.09;5016795;28;20213;-77
2023/01/11 10:07:53;;;;;;;4.13;3.10;;;;;;;7.09;99.07;100516.97;5031783;28;20194;-78
2023/01/11 10:11:00;;;;;;;3.65;2.45;;;;;;;7.18;98.87;100505.91;5016711;28;20651;-79
2023/01/11 10:14:00;;;;;;;7.13;2.40;;;;;;;7.23;99.12;100506.16;5017474;28;20209;-77
2023/01/11 10:17:02;;;;;;;5.03;2.40;;;;;;;7.20;99.22;100495.78;5022289;28;20190;-77
2023/01/11 10:20:39;;;;;;;4.68;3.13;;;;;;;7.17;100.00;100488.06;4991754;28;20198;-78
2023/01/11 10:23:23;;;;;;;3.50;2.70;;;;;;;7.33;100.00;100487.00;5033400;28;20244;-79
2023/01/11 10:26:11;;;;;;;3.95;2.25;;;;;;;7.30;99.91;100492.78;5002004;28;20276;-79
2023/01/11 10:30:32;;;;;;;5.90;2.63;;;;;;;7.28;100.00;100479.50;5001142;28;20223;-78
2023/01/11 10:33:23;;;;;;;9.60;5.95;;;;;;;7.20;100.00;100481.50;5004854;28;20246;-78
2023/01/11 10:36:24;;;;;;;7.72;3.20;;;;;;;7.21;100.00;100473.22;5024235;28;20186;-79
2023/01/11 10:39:34;;;;;;;3.00;2.38;;;;;;;7.31;100.00;100472.94;5028143;28;20209;-79
2023/01/11 10:42:30;;;;;;;5.82;2.85;;;;;;;7.42;100.00;100481.31;5031244;28;20228;-78
2023/01/11 10:45:10;;;;;;;4.68;2.80;;;;;;;7.47;100.00;100480.75;5012582;28;20191;-78
2023/01/11 10:47:52;;;;;;;7.50;3.10;;;;;;;7.54;100.00;100484.34;5027562;28;20178;-78
2023/01/11 10:50:28;;;;;;;4.82;3.60;;;;;;;7.72;100.00;100475.81;5030851;28;20198;-78
2023/01/11 10:53:19;;;;;;;5.20;3.80;;;;;;;7.87;99.33;100479.25;5013120;28;20217;-78
2023/01/11 10:55:57;;;;;;;4.28;2.75;;;;;;;7.80;99.52;100472.97;5031387;28;20202;-79
2023/01/11 10:58:45;;;;;;;4.28;2.70;;;;;;;7.76;99.09;100479.78;5031705;28;20173;-81
2023/01/11 11:01:31;;;;;;;4.80;2.35;;;;;;;7.70;99.51;100461.69;5037315;28;20159;-77
2023/01/11 11:04:23;;;;;;;3.67;2.60;;;;;;;7.63;99.76;100455.41;5030970;28;20202;-79
2023/01/11 11:07:33;;;;;;;4.38;2.90;;;;;;;7.66;100.00;100460.41;5037492;28;20230;-77
2023/01/11 11:13:22;;;;;;;4.53;2.47;;;;;;;7.72;100.00;100444.31;5006779;28;20237;-79
2023/01/11 11:16:06;;;;;;;2.55;1.95;;;;;;;7.66;100.00;100442.38;5067302;28;20209;-79
2023/01/11 11:24:41;;;;;;;4.35;2.70;;;;;;;7.62;100.00;100427.66;5025310;28;20268;-79
2023/01/11 11:27:22;;;;;;;3.88;3.03;;;;;;;7.82;100.00;100423.25;5037236;28;20244;-78
2023/01/11 11:29:53;;;;;;;2.97;2.67;;;;;;;7.87;100.00;100428.06;5020959;28;20193;-78
2023/01/11 11:32:28;;;;;;;3.13;2.83;;;;;;;7.99;100.00;100431.88;5026548;28;20217;-78
2023/01/11 11:35:13;;;;;;;4.10;2.90;;;;;;;8.05;100.00;100431.09;5023186;28;20201;-77
2023/01/11 11:37:46;;;;;;;3.10;2.60;;;;;;;7.88;100.00;100421.66;5014173;28;20166;-78
2023/01/11 11:40:30;;;;;;;3.33;2.58;;;;;;;7.86;100.00;100413.75;4997236;28;20187;-78
2023/01/11 11:43:45;;;;;;;3.97;2.72;;;;;;;7.92;100.00;100412.16;5012735;28;20246;-78
2023/01/11 11:46:28;;;;;;;6.32;2.90;;;;;;;7.98;100.00;100419.44;5027827;28;20197;-78
2023/01/11 11:49:16;;;;;;;3.45;2.65;;;;;;;7.86;100.00;100423.69;5030299;28;20193;-78
2023/01/11 11:51:48;;;;;;;4.10;2.40;;;;;;;7.83;100.00;100418.72;5025734;28;20194;-79
2023/01/11 11:54:58;;;;;;;3.03;2.80;;;;;;;7.85;100.00;100413.94;5027685;28;20651;-80
2023/01/11 11:57:44;;;;;;;2.88;2.33;;;;;;;7.86;100.00;100418.31;5016777;28;20193;-80
2023/01/11 12:00:27;;;;;;;2.30;2.13;;;;;;;7.88;100.00;100405.50;5030772;28;20194;-78
2023/01/11 12:03:16;;;;;;;3.63;2.65;;;;;;;7.98;100.00;100405.97;5034298;28;20217;-78
2023/01/11 12:06:02;;;;;;;5.60;2.97;;;;;;;7.88;100.00;100400.09;5032302;28;20182;-80
2023/01/11 12:08:34;;;;;;;4.40;2.45;;;;;;;7.93;100.00;100391.44;5023033;28;20193;-79
2023/01/11 12:11:06;;;;;;;5.63;2.80;;;;;;;7.99;100.00;100386.06;5024717;28;20217;-79
2023/01/11 12:13:37;;;;;;;4.45;4.15;;;;;;;8.02;100.00;100391.06;5034808;28;20253;-79
2023/01/11 12:16:19;;;;;;;3.95;2.95;;;;;;;8.02;100.00;100385.69;5019454;28;20681;-80
2023/01/11 12:19:02;;;;;;;3.30;2.58;;;;;;;8.19;100.00;100380.78;5022236;28;20205;-81
2023/01/11 12:21:40;;;;;;;4.38;3.05;;;;;;;8.23;100.00;100374.81;5037895;28;20236;-79
2023/01/11 12:24:24;;;;;;;6.10;3.88;;;;;;;8.17;100.00;100377.47;5018717;28;20215;-81
2023/01/11 12:27:10;;;;;;;3.65;3.22;;;;;;;8.11;100.00;100368.31;5019500;28;20285;-79
2023/01/11 12:30:35;;;;;;;6.25;2.63;;;;;;;8.21;100.00;100368.78;4988211;28;20198;-79
2023/01/11 12:33:36;;;;;;;3.35;2.80;;;;;;;8.25;100.00;100370.06;5011164;28;20233;-79
2023/01/11 12:36:27;;;;;;;3.55;2.65;;;;;;;8.35;100.00;100363.50;5002825;28;20218;-79
2023/01/11 12:39:23;;;;;;;2.75;2.42;;;;;;;8.35;100.00;100360.78;4987299;28;20844;-80
2023/01/11 12:45:43;;;;;;;3.72;3.28;;;;;;;8.17;100.00;100367.53;5021584;28;20506;-81
2023/01/11 12:48:42;;;;;;;4.20;2.70;;;;;;;8.17;100.00;100370.22;5008269;28;20274;-80
2023/01/11 12:51:49;;;;;;;3.50;2.22;;;;;;;8.20;100.00;100360.91;5039330;28;20721;-80
2023/01/11 12:54:54;;;;;;;2.13;1.92;;;;;;;8.04;100.00;100355.81;5021902;28;20280;-79
2023/01/11 12:57:40;;;;;;;3.35;3.05;;;;;;;8.22;100.00;100358.84;5036447;28;20193;-80